createdAt,value
2023-05-13T00:01:56.779Z,15.49
2023-05-13T00:04:25.239Z,15.48
2023-05-13T00:06:53.191Z,15.37
2023-05-13T00:09:22.392Z,15.39
2023-05-13T00:11:50.315Z,15.43
2023-05-13T00:14:18.637Z,15.42
2023-05-13T00:16:47.798Z,15.42
2023-05-13T00:19:16.828Z,15.42
2023-05-13T00:21:44.785Z,15.42
2023-05-13T00:24:13.246Z,15.34
2023-05-13T00:26:42.409Z,15.35
2023-05-13T00:29:10.728Z,15.38
2023-05-13T00:31:38.914Z,15.35
2023-05-13T00:34:07.345Z,15.21
2023-05-13T00:36:35.324Z,15.14
2023-05-13T00:39:04.236Z,15.08
2023-05-13T00:41:33.048Z,15.16
2023-05-13T00:44:01.706Z,15.22
2023-05-13T00:46:34.817Z,15.31
2023-05-13T00:49:05.303Z,15.20
2023-05-13T00:51:33.958Z,15.25
2023-05-13T00:54:02.680Z,15.29
2023-05-13T00:56:32.518Z,15.25
2023-05-13T00:59:00.862Z,15.25
2023-05-13T01:01:51.980Z,15.30
2023-05-13T01:05:16.995Z,15.27
2023-05-13T01:08:11.538Z,15.31
2023-05-13T01:10:56.713Z,15.26
2023-05-13T01:13:27.838Z,15.26
2023-05-13T01:16:26.928Z,15.24
2023-05-13T01:19:17.874Z,15.22
2023-05-13T01:21:55.691Z,15.19
2023-05-13T01:24:24.501Z,15.31
2023-05-13T01:26:53.166Z,15.24
2023-05-13T01:29:22.517Z,15.31
2023-05-13T01:31:56.603Z,15.29
2023-05-13T01:34:26.200Z,15.35
2023-05-13T01:36:58.021Z,15.29
2023-05-13T01:39:26.419Z,15.31
2023-05-13T01:42:02.621Z,15.34
2023-05-13T01:44:32.225Z,15.38
2023-05-13T01:47:01.581Z,15.33
2023-05-13T01:49:31.032Z,15.35
2023-05-13T01:51:59.401Z,15.41
2023-05-13T01:54:30.214Z,15.31
2023-05-13T01:57:04.868Z,15.31
2023-05-13T01:59:34.058Z,15.10
2023-05-13T02:02:02.429Z,15.01
2023-05-13T02:04:30.504Z,14.92
2023-05-13T02:06:59.873Z,14.88
2023-05-13T02:09:32.064Z,14.84
2023-05-13T02:12:00.621Z,14.95
2023-05-13T02:14:29.714Z,15.00
2023-05-13T02:16:58.334Z,14.91
2023-05-13T02:19:26.848Z,14.87
2023-05-13T02:21:55.256Z,14.86
2023-05-13T02:24:23.199Z,14.86
2023-05-13T02:26:56.730Z,15.01
2023-05-13T02:29:24.646Z,14.93
2023-05-13T02:31:53.929Z,14.94
2023-05-13T02:34:22.131Z,15.01
2023-05-13T02:36:50.634Z,14.80
2023-05-13T02:39:18.683Z,14.70
2023-05-13T02:41:47.371Z,14.90
2023-05-13T02:44:15.810Z,14.81
2023-05-13T02:46:45.570Z,14.84
2023-05-13T02:49:14.419Z,14.82
2023-05-13T02:51:42.768Z,14.85
2023-05-13T02:54:11.432Z,14.79
2023-05-13T02:56:40.139Z,14.86
2023-05-13T02:59:08.207Z,14.87
2023-05-13T03:01:37.383Z,14.90
2023-05-13T03:04:05.428Z,14.95
2023-05-13T03:06:34.451Z,14.93
2023-05-13T03:09:02.437Z,14.89
2023-05-13T03:11:30.904Z,14.89
2023-05-13T03:14:00.053Z,14.95
2023-05-13T03:16:28.559Z,14.92
2023-05-13T03:18:56.535Z,14.99
2023-05-13T03:21:25.064Z,14.88
2023-05-13T03:23:54.065Z,14.99
2023-05-13T03:26:22.752Z,15.00
2023-05-13T03:28:51.837Z,15.03
2023-05-13T03:31:20.284Z,15.07
2023-05-13T03:33:48.490Z,15.09
2023-05-13T03:36:16.753Z,15.07
2023-05-13T03:38:44.691Z,15.04
2023-05-13T03:41:17.759Z,15.03
2023-05-13T03:43:47.639Z,15.03
2023-05-13T03:46:17.798Z,15.11
2023-05-13T03:48:46.042Z,15.10
2023-05-13T03:51:14.411Z,15.12
2023-05-13T03:53:42.874Z,15.09
2023-05-13T03:56:11.214Z,15.15
2023-05-13T03:58:40.411Z,15.20
2023-05-13T04:01:08.948Z,15.09
2023-05-13T04:03:36.835Z,15.17
2023-05-13T04:06:05.684Z,15.12
2023-05-13T04:08:33.650Z,15.16
2023-05-13T04:11:01.932Z,15.20
2023-05-13T04:13:29.846Z,15.25
2023-05-13T04:15:58.642Z,15.26
2023-05-13T04:18:30.204Z,15.33
2023-05-13T04:20:58.640Z,15.34
2023-05-13T04:23:26.656Z,15.40
2023-05-13T04:25:55.087Z,15.35
2023-05-13T04:28:22.915Z,15.35
2023-05-13T04:30:53.005Z,15.38
2023-05-13T04:33:21.330Z,15.36
2023-05-13T04:35:50.857Z,15.34
2023-05-13T04:38:19.186Z,15.41
2023-05-13T04:40:48.239Z,15.42
2023-05-13T04:43:21.919Z,15.48
2023-05-13T04:45:54.294Z,15.49
2023-05-13T04:48:22.896Z,15.49
2023-05-13T04:50:51.511Z,15.55
2023-05-13T04:53:20.070Z,15.56
2023-05-13T04:55:50.032Z,15.58
2023-05-13T04:58:17.984Z,15.49
2023-05-13T05:00:46.627Z,15.49
2023-05-13T05:03:14.749Z,15.48
2023-05-13T05:05:43.418Z,15.47
2023-05-13T05:08:12.694Z,15.51
2023-05-13T05:10:41.242Z,15.58
2023-05-13T05:13:12.655Z,15.55
2023-05-13T05:15:42.090Z,15.52
2023-05-13T05:18:10.933Z,15.57
2023-05-13T05:20:41.866Z,15.52
2023-05-13T05:23:15.828Z,15.59
2023-05-13T05:25:44.774Z,15.50
2023-05-13T05:28:13.084Z,15.50
2023-05-13T05:30:44.213Z,15.42
2023-05-13T05:33:23.700Z,15.48
2023-05-13T05:35:52.727Z,15.42
2023-05-13T05:38:25.622Z,15.52
2023-05-13T05:40:57.373Z,15.53
2023-05-13T05:43:25.707Z,15.44
2023-05-13T05:45:54.004Z,15.51
2023-05-13T05:48:23.048Z,15.63
2023-05-13T05:50:51.753Z,15.31
2023-05-13T05:53:26.812Z,15.14
2023-05-13T05:55:55.665Z,15.19
2023-05-13T05:58:23.781Z,15.09
2023-05-13T06:00:52.646Z,15.28
2023-05-13T06:03:21.806Z,15.45
2023-05-13T06:05:50.258Z,15.52
2023-05-13T06:08:19.966Z,15.58
2023-05-13T06:10:48.411Z,15.54
2023-05-13T06:13:17.497Z,15.64
2023-05-13T06:15:47.546Z,15.61
2023-05-13T06:18:16.369Z,15.64
2023-05-13T06:20:46.991Z,15.57
2023-05-13T06:23:15.305Z,15.63
2023-05-13T06:25:43.711Z,15.60
2023-05-13T06:28:12.616Z,15.50
2023-05-13T06:30:41.337Z,15.60
2023-05-13T06:33:10.817Z,15.53
2023-05-13T06:35:39.404Z,15.57
2023-05-13T06:38:08.067Z,15.52
2023-05-13T06:40:37.670Z,15.57
2023-05-13T06:43:06.616Z,15.57
2023-05-13T06:45:39.194Z,15.57
2023-05-13T06:48:07.347Z,15.58
2023-05-13T06:50:35.765Z,15.62
2023-05-13T06:53:03.689Z,15.61
2023-05-13T06:55:32.401Z,15.60
2023-05-13T06:58:00.204Z,15.64
2023-05-13T07:00:28.864Z,15.67
2023-05-13T07:02:56.972Z,15.54
2023-05-13T07:05:25.655Z,15.49
2023-05-13T07:07:54.037Z,15.55
2023-05-13T07:10:24.859Z,15.61
2023-05-13T07:13:00.753Z,15.62
2023-05-13T07:15:29.673Z,15.65
2023-05-13T07:17:57.615Z,15.78
2023-05-13T07:20:28.175Z,15.74
2023-05-13T07:22:56.368Z,15.75
2023-05-13T07:25:25.831Z,15.65
2023-05-13T07:27:53.923Z,15.65
2023-05-13T07:30:22.421Z,15.60
2023-05-13T07:32:53.692Z,15.55
2023-05-13T07:35:22.648Z,15.59
2023-05-13T07:37:50.786Z,15.52
2023-05-13T07:40:21.707Z,15.44
2023-05-13T07:42:49.851Z,15.35
2023-05-13T07:45:18.324Z,15.23
2023-05-13T07:47:47.202Z,15.08
2023-05-13T07:50:15.428Z,14.90
2023-05-13T07:52:44.562Z,14.95
2023-05-13T07:55:12.913Z,14.94
2023-05-13T07:57:41.089Z,14.95
2023-05-13T08:00:09.893Z,14.95
2023-05-13T08:02:45.630Z,14.94
2023-05-13T08:05:14.121Z,15.08
2023-05-13T08:07:41.918Z,15.15
2023-05-13T08:10:10.444Z,15.10
2023-05-13T08:12:40.679Z,15.11
2023-05-13T08:15:09.513Z,15.24
2023-05-13T08:17:37.486Z,15.30
2023-05-13T08:20:06.483Z,15.31
2023-05-13T08:22:35.340Z,15.22
2023-05-13T08:25:03.943Z,15.24
2023-05-13T08:27:33.228Z,15.33
2023-05-13T08:30:01.650Z,15.32
2023-05-13T08:32:31.791Z,15.27
2023-05-13T08:35:01.591Z,15.31
2023-05-13T08:37:33.011Z,15.16
2023-05-13T08:40:03.758Z,15.05
2023-05-13T08:42:39.158Z,15.17
2023-05-13T08:45:09.249Z,15.12
2023-05-13T08:47:57.190Z,15.29
2023-05-13T08:50:26.312Z,15.28
2023-05-13T08:52:55.112Z,15.20
2023-05-13T08:55:24.754Z,15.22
2023-05-13T08:57:53.377Z,15.35
2023-05-13T09:00:22.482Z,15.38
2023-05-13T09:02:51.391Z,15.42
2023-05-13T09:05:22.326Z,15.55
2023-05-13T09:07:50.446Z,15.54
2023-05-13T09:10:19.638Z,15.56
2023-05-13T09:12:54.519Z,15.49
2023-05-13T09:15:24.349Z,15.56
2023-05-13T09:17:59.064Z,15.60
2023-05-13T09:20:30.263Z,15.64
2023-05-13T09:23:02.657Z,15.63
2023-05-13T09:25:31.712Z,15.56
2023-05-13T09:28:02.680Z,15.51
2023-05-13T09:30:36.190Z,15.59
2023-05-13T09:33:30.941Z,15.56
2023-05-13T09:35:59.461Z,15.62
2023-05-13T09:38:31.770Z,15.59
2023-05-13T09:41:03.982Z,15.49
2023-05-13T09:43:33.234Z,15.62
2023-05-13T09:46:03.653Z,15.62
2023-05-13T09:48:35.426Z,15.53
2023-05-13T09:51:04.228Z,15.58
2023-05-13T09:53:32.050Z,15.54
2023-05-13T09:56:01.903Z,15.55
2023-05-13T09:58:31.360Z,15.57
2023-05-13T10:01:00.139Z,15.54
2023-05-13T10:03:29.309Z,15.57
2023-05-13T10:06:03.064Z,15.65
2023-05-13T10:08:32.509Z,15.54
2023-05-13T10:11:00.963Z,15.61
2023-05-13T10:13:32.315Z,15.66
2023-05-13T10:16:01.490Z,15.55
2023-05-13T10:18:29.959Z,15.68
2023-05-13T10:20:59.030Z,15.57
2023-05-13T10:23:28.644Z,15.59
2023-05-13T10:25:59.610Z,15.60
2023-05-13T10:28:28.450Z,15.75
2023-05-13T10:30:57.453Z,15.80
2023-05-13T10:33:27.536Z,15.69
2023-05-13T10:36:08.423Z,15.78
2023-05-13T10:39:00.737Z,15.66
2023-05-13T10:41:49.357Z,15.55
2023-05-13T10:44:19.841Z,15.48
2023-05-13T10:46:48.901Z,15.37
2023-05-13T10:49:17.344Z,15.52
2023-05-13T10:51:49.650Z,15.37
2023-05-13T10:54:23.202Z,15.40
2023-05-13T10:57:00.138Z,15.45
2023-05-13T10:59:30.810Z,15.26
2023-05-13T11:02:02.444Z,15.42
2023-05-13T11:04:31.660Z,15.48
2023-05-13T11:07:16.163Z,15.48
2023-05-13T11:09:51.317Z,15.55
2023-05-13T11:12:19.538Z,15.55
2023-05-13T11:14:49.121Z,15.49
2023-05-13T11:17:20.941Z,15.44
2023-05-13T11:19:51.733Z,15.47
2023-05-13T11:22:26.671Z,15.44
2023-05-13T11:25:11.768Z,15.46
2023-05-13T11:27:42.628Z,15.50
2023-05-13T11:30:24.747Z,15.59
2023-05-13T11:32:58.518Z,15.63
2023-05-13T11:35:34.480Z,15.58
2023-05-13T11:38:04.509Z,15.64
2023-05-13T11:40:33.342Z,15.75
2023-05-13T11:43:02.493Z,15.67
2023-05-13T11:45:32.134Z,15.72
2023-05-13T11:48:22.460Z,15.70
2023-05-13T11:50:52.260Z,15.67
2023-05-13T11:53:25.076Z,15.68
2023-05-13T11:55:54.230Z,15.58
2023-05-13T11:58:22.685Z,15.53
2023-05-13T12:00:55.092Z,15.49
2023-05-13T12:03:24.431Z,15.55
2023-05-13T12:06:01.793Z,15.43
2023-05-13T12:08:30.376Z,15.43
2023-05-13T12:11:00.242Z,15.66
2023-05-13T12:13:28.587Z,15.72
2023-05-13T12:15:56.779Z,15.71
2023-05-13T12:18:25.780Z,15.64
2023-05-13T12:20:53.801Z,15.77
2023-05-13T12:23:22.032Z,15.88
2023-05-13T12:25:53.958Z,15.89
2023-05-13T12:28:27.140Z,15.99
2023-05-13T12:31:00.464Z,15.75
2023-05-13T12:33:43.371Z,15.80
2023-05-13T12:36:28.204Z,15.74
2023-05-13T12:39:06.500Z,15.70
2023-05-13T12:41:36.570Z,15.65
2023-05-13T12:44:09.165Z,15.70
2023-05-13T12:46:37.931Z,15.78
2023-05-13T12:49:06.787Z,15.67
2023-05-13T12:51:35.184Z,15.71
2023-05-13T12:54:03.275Z,15.67
2023-05-13T12:56:31.612Z,15.82
2023-05-13T12:59:00.018Z,15.74
2023-05-13T13:01:29.885Z,15.77
2023-05-13T13:03:58.900Z,15.74
2023-05-13T13:06:27.245Z,15.57
2023-05-13T13:08:55.878Z,15.57
2023-05-13T13:11:23.890Z,15.37
2023-05-13T13:13:52.603Z,15.32
2023-05-13T13:16:20.630Z,15.28
2023-05-13T13:18:52.394Z,15.37
2023-05-13T13:21:21.461Z,15.39
2023-05-13T13:23:49.758Z,15.45
2023-05-13T13:26:18.382Z,15.53
2023-05-13T13:28:46.926Z,15.47
2023-05-13T13:31:15.108Z,15.53
2023-05-13T13:33:43.262Z,15.58
2023-05-13T13:36:11.347Z,15.56
2023-05-13T13:38:39.541Z,15.60
2023-05-13T13:41:07.907Z,15.57
2023-05-13T13:43:36.279Z,15.55
2023-05-13T13:46:04.608Z,15.54
2023-05-13T13:48:32.836Z,15.47
2023-05-13T13:51:00.897Z,15.60
2023-05-13T13:53:29.371Z,15.65
2023-05-13T13:55:57.202Z,15.69
2023-05-13T13:58:26.742Z,15.68
2023-05-13T14:00:54.661Z,15.78
2023-05-13T14:03:22.975Z,15.75
2023-05-13T14:05:54.701Z,15.48
2023-05-13T14:08:23.007Z,15.32
2023-05-13T14:10:51.054Z,15.42
2023-05-13T14:13:19.543Z,15.35
2023-05-13T14:15:47.374Z,15.38
2023-05-13T14:18:15.797Z,14.93
2023-05-13T14:20:43.635Z,14.96
2023-05-13T14:23:13.005Z,15.04
2023-05-13T14:25:40.958Z,15.08
2023-05-13T14:28:09.325Z,15.11
2023-05-13T14:30:37.903Z,15.14
2023-05-13T14:33:06.297Z,15.20
2023-05-13T14:35:34.978Z,15.23
2023-05-13T14:38:03.183Z,15.25
2023-05-13T14:40:31.021Z,15.19
2023-05-13T14:43:01.733Z,15.23
2023-05-13T14:45:30.340Z,15.21
2023-05-13T14:47:58.748Z,15.19
2023-05-13T14:50:26.703Z,15.30
2023-05-13T14:52:54.848Z,15.29
2023-05-13T14:55:23.115Z,15.38
2023-05-13T14:57:51.494Z,15.31
2023-05-13T15:00:20.308Z,15.43
2023-05-13T15:02:48.604Z,15.39
2023-05-13T15:05:16.812Z,15.49
2023-05-13T15:07:45.102Z,15.39
2023-05-13T15:10:13.099Z,15.31
2023-05-13T15:12:41.347Z,15.28
2023-05-13T15:15:13.352Z,15.25
2023-05-13T15:17:44.030Z,15.29
2023-05-13T15:20:12.935Z,15.40
2023-05-13T15:22:41.228Z,15.17
2023-05-13T15:25:09.511Z,15.23
2023-05-13T15:27:37.792Z,15.10
2023-05-13T15:30:06.584Z,14.98
2023-05-13T15:32:35.117Z,15.07
2023-05-13T15:35:03.155Z,14.98
2023-05-13T15:37:32.808Z,15.05
2023-05-13T15:40:00.896Z,14.97
2023-05-13T15:42:31.316Z,15.19
2023-05-13T15:44:59.163Z,15.18
2023-05-13T15:47:27.861Z,15.05
2023-05-13T15:49:55.963Z,14.92
2023-05-13T15:52:24.226Z,14.85
2023-05-13T15:54:52.325Z,14.99
2023-05-13T15:57:20.549Z,15.08
2023-05-13T15:59:48.486Z,15.11
2023-05-13T16:02:18.745Z,15.19
2023-05-13T16:04:46.895Z,15.32
2023-05-13T16:07:15.193Z,15.35
2023-05-13T16:09:44.118Z,15.38
2023-05-13T16:12:12.459Z,15.11
2023-05-13T16:14:40.545Z,15.18
2023-05-13T16:17:09.040Z,15.17
2023-05-13T16:19:36.879Z,15.11
2023-05-13T16:22:38.411Z,15.31
2023-05-13T16:25:08.683Z,15.22
2023-05-13T16:27:38.161Z,15.09
2023-05-13T16:30:07.741Z,15.20
2023-05-13T16:32:37.034Z,15.23
2023-05-13T16:35:05.403Z,15.23
2023-05-13T16:37:35.795Z,15.04
2023-05-13T16:40:03.810Z,14.93
2023-05-13T16:42:33.045Z,14.89
2023-05-13T16:45:07.941Z,14.96
2023-05-13T16:47:36.610Z,15.17
2023-05-13T16:50:04.936Z,14.94
2023-05-13T16:52:34.360Z,14.90
2023-05-13T16:55:02.289Z,14.76
2023-05-13T16:57:31.577Z,14.60
2023-05-13T16:59:59.331Z,14.66
2023-05-13T17:02:27.773Z,14.58
2023-05-13T17:04:55.864Z,14.63
2023-05-13T17:07:24.068Z,14.82
2023-05-13T17:09:51.891Z,14.83
2023-05-13T17:12:20.151Z,14.92
2023-05-13T17:14:47.998Z,14.85
2023-05-13T17:17:16.617Z,14.75
2023-05-13T17:19:44.501Z,14.59
2023-05-13T17:22:13.313Z,14.53
2023-05-13T17:24:41.538Z,14.53
2023-05-13T17:27:09.931Z,14.43
2023-05-13T17:29:37.997Z,14.24
2023-05-13T17:32:06.800Z,14.38
2023-05-13T17:34:34.707Z,14.15
2023-05-13T17:37:04.307Z,14.16
2023-05-13T17:39:32.186Z,13.95
2023-05-13T17:42:00.680Z,13.98
2023-05-13T17:44:28.546Z,13.98
2023-05-13T17:46:56.938Z,13.75
2023-05-13T17:49:24.838Z,13.84
2023-05-13T17:51:53.076Z,13.84
2023-05-13T17:54:21.338Z,13.84
2023-05-13T17:56:50.967Z,13.85
2023-05-13T17:59:18.769Z,13.60
2023-05-13T18:02:05.879Z,13.56
2023-05-13T18:04:34.072Z,13.78
2023-05-13T18:07:02.647Z,13.60
2023-05-13T18:09:31.393Z,13.55
2023-05-13T18:11:59.616Z,13.46
2023-05-13T18:14:32.470Z,13.56
2023-05-13T18:17:00.976Z,13.34
2023-05-13T18:19:28.891Z,13.37
2023-05-13T18:21:57.515Z,13.32
2023-05-13T18:24:25.356Z,13.23
2023-05-13T18:26:53.638Z,13.47
2023-05-13T18:29:22.356Z,13.50
2023-05-13T18:31:50.749Z,13.62
2023-05-13T18:34:18.709Z,13.51
2023-05-13T18:36:47.457Z,13.61
2023-05-13T18:39:15.883Z,13.66
2023-05-13T18:41:44.287Z,13.63
2023-05-13T18:44:12.143Z,13.57
2023-05-13T18:46:40.955Z,13.55
2023-05-13T18:49:08.815Z,13.58
2023-05-13T18:51:37.429Z,13.45
2023-05-13T18:54:06.527Z,13.55
2023-05-13T18:56:34.810Z,13.43
2023-05-13T18:59:02.739Z,13.45
2023-05-13T19:01:30.998Z,13.35
2023-05-13T19:03:59.029Z,13.41
2023-05-13T19:06:27.368Z,13.30
2023-05-13T19:08:55.254Z,13.34
2023-05-13T19:11:23.429Z,13.19
2023-05-13T19:13:51.625Z,13.39
2023-05-13T19:16:19.997Z,13.39
2023-05-13T19:18:48.405Z,13.27
2023-05-13T19:21:16.815Z,13.42
2023-05-13T19:23:44.728Z,13.51
2023-05-13T19:26:12.961Z,13.52
2023-05-13T19:28:44.118Z,13.54
2023-05-13T19:31:12.651Z,13.58
2023-05-13T19:33:40.690Z,13.60
2023-05-13T19:36:09.645Z,13.47
2023-05-13T19:38:37.550Z,13.46
2023-05-13T19:41:05.890Z,13.51
2023-05-13T19:43:34.046Z,13.43
2023-05-13T19:46:02.729Z,13.39
2023-05-13T19:48:30.958Z,13.42
2023-05-13T19:50:59.186Z,13.31
2023-05-13T19:53:27.272Z,13.18
2023-05-13T19:55:56.305Z,13.26
2023-05-13T19:58:25.106Z,13.30
2023-05-13T20:00:54.911Z,13.22
2023-05-13T20:03:23.356Z,13.33
2023-05-13T20:05:54.242Z,13.34
2023-05-13T20:08:22.524Z,13.31
2023-05-13T20:10:50.770Z,13.27
2023-05-13T20:13:19.494Z,13.28
2023-05-13T20:15:47.836Z,13.28
2023-05-13T20:18:16.394Z,13.41
2023-05-13T20:20:48.193Z,13.37
2023-05-13T20:23:16.184Z,13.34
2023-05-13T20:25:46.917Z,13.31
2023-05-13T20:28:14.990Z,13.35
2023-05-13T20:30:43.541Z,13.23
2023-05-13T20:33:11.833Z,13.24
2023-05-13T20:35:40.614Z,13.26
2023-05-13T20:38:09.226Z,13.21
2023-05-13T20:40:37.988Z,13.21
2023-05-13T20:43:07.698Z,13.20
2023-05-13T20:45:39.570Z,13.24
2023-05-13T20:48:08.347Z,13.22
2023-05-13T20:50:37.475Z,13.11
2023-05-13T20:53:05.478Z,13.17
2023-05-13T20:55:34.032Z,13.09
2023-05-13T20:58:02.105Z,13.17
2023-05-13T21:00:30.405Z,13.21
2023-05-13T21:02:58.824Z,13.14
2023-05-13T21:05:27.633Z,13.14
2023-05-13T21:07:55.906Z,13.14
2023-05-13T21:10:24.860Z,13.08
2023-05-13T21:12:52.996Z,13.22
2023-05-13T21:15:21.384Z,13.29
2023-05-13T21:17:49.423Z,13.32
2023-05-13T21:20:17.873Z,13.38
2023-05-13T21:22:45.822Z,13.32
2023-05-13T21:25:14.234Z,13.32
2023-05-13T21:27:42.241Z,13.33
2023-05-13T21:30:11.076Z,13.35
2023-05-13T21:32:39.054Z,13.26
2023-05-13T21:35:12.833Z,13.35
2023-05-13T21:37:41.212Z,13.28
2023-05-13T21:40:10.028Z,13.30
2023-05-13T21:42:38.007Z,13.36
2023-05-13T21:45:06.821Z,13.30
2023-05-13T21:47:34.737Z,13.27
2023-05-13T21:50:03.185Z,13.38
2023-05-13T21:52:32.212Z,13.34
2023-05-13T21:55:01.764Z,13.38
2023-05-13T21:57:33.052Z,13.50
2023-05-13T22:00:01.387Z,13.49
2023-05-13T22:02:32.981Z,13.41
2023-05-13T22:05:01.566Z,13.40
2023-05-13T22:07:29.839Z,13.44
2023-05-13T22:09:58.172Z,13.43
2023-05-13T22:12:27.588Z,13.50
2023-05-13T22:14:55.837Z,13.30
2023-05-13T22:17:24.290Z,13.38
2023-05-13T22:19:53.156Z,13.35
2023-05-13T22:22:20.987Z,13.33
2023-05-13T22:24:49.152Z,13.33
2023-05-13T22:27:17.663Z,13.43
2023-05-13T22:29:46.116Z,13.40
2023-05-13T22:32:14.375Z,13.49
2023-05-13T22:34:42.842Z,13.37
2023-05-13T22:37:11.013Z,13.24
2023-05-13T22:39:39.385Z,13.23
2023-05-13T22:42:07.950Z,13.33
2023-05-13T22:44:36.553Z,13.44
2023-05-13T22:47:04.547Z,13.39
2023-05-13T22:49:34.106Z,13.41
2023-05-13T22:52:01.992Z,13.28
2023-05-13T22:54:30.270Z,13.21
2023-05-13T22:56:59.714Z,13.35
2023-05-13T22:59:28.501Z,13.29
2023-05-13T23:01:56.605Z,13.33
2023-05-13T23:04:25.167Z,13.27
2023-05-13T23:06:53.305Z,13.30
2023-05-13T23:09:21.590Z,13.35
2023-05-13T23:11:49.755Z,13.32
2023-05-13T23:14:18.270Z,13.36
2023-05-13T23:16:46.185Z,13.28
2023-05-13T23:19:14.705Z,13.30
2023-05-13T23:21:42.732Z,13.36
2023-05-13T23:24:10.932Z,13.42
2023-05-13T23:26:39.145Z,13.53
2023-05-13T23:29:09.002Z,13.48
2023-05-13T23:31:37.303Z,13.48
2023-05-13T23:34:08.747Z,13.46
2023-05-13T23:36:38.529Z,13.48
2023-05-13T23:39:07.121Z,13.51
2023-05-13T23:41:36.180Z,13.31
2023-05-13T23:44:04.572Z,13.29
2023-05-13T23:46:32.499Z,13.40
2023-05-13T23:49:01.764Z,13.50
2023-05-13T23:51:32.460Z,13.55
2023-05-13T23:54:01.334Z,13.48
2023-05-13T23:56:29.572Z,13.47
2023-05-13T23:58:58.577Z,13.41
